Time;durP1;ratioP1;P1;durP2;ratioP2;P2;SDS_P1;SDS_P2;PMS_P1;PMS_P2;Temp;Humidity;BMP_temperature;BMP_pressure;BME280_temperature;BME280_humidity;BME280_pressure;Samples;Min_cycle;Max_cycle;Signal;HPM_P1;HPM_P2
2021/05/16 00:01:30;;;;;;;17.25;8.20;;;;;;;-145.50;100.00;65435.88;4995360;28;20066;-75
2021/05/16 00:04:18;;;;;;;14.27;7.88;;;;;;;-145.50;100.00;65435.88;4992081;28;20060;-76
2021/05/16 00:07:05;;;;;;;18.55;8.68;;;;;;;-145.50;100.00;65435.88;4998900;28;20058;-77
2021/05/16 00:09:52;;;;;;;18.92;8.23;;;;;;;-145.50;100.00;65435.88;5000970;28;20718;-75
2021/05/16 00:12:39;;;;;;;18.15;8.15;;;;;;;-145.50;100.00;65435.88;5001928;28;20089;-75
2021/05/16 00:15:29;;;;;;;16.10;7.43;;;;;;;-145.50;100.00;65435.88;4995115;28;20168;-75
2021/05/16 00:18:16;;;;;;;17.63;6.80;;;;;;;-145.50;100.00;65435.88;4992001;28;20069;-75
2021/05/16 00:21:03;;;;;;;18.45;7.32;;;;;;;-145.50;100.00;65435.88;4999278;28;20220;-75
2021/05/16 00:23:50;;;;;;;17.53;6.97;;;;;;;-145.50;100.00;65435.88;4994244;28;20140;-73
2021/05/16 00:26:37;;;;;;;21.15;7.60;;;;;;;-145.50;100.00;65435.88;5000548;28;20561;-74
2021/05/16 00:29:24;;;;;;;19.13;7.00;;;;;;;-145.50;100.00;65435.88;4995671;28;20557;-74
2021/05/16 00:32:12;;;;;;;15.45;6.68;;;;;;;-145.50;100.00;65435.88;4986364;28;20638;-74
2021/05/16 00:34:59;;;;;;;19.83;7.13;;;;;;;-145.50;100.00;65435.88;4997993;28;20058;-74
2021/05/16 00:37:46;;;;;;;24.17;6.97;;;;;;;-145.50;100.00;65435.88;4993864;28;20050;-75
2021/05/16 00:40:34;;;;;;;17.33;6.50;;;;;;;-145.50;100.00;65435.88;5001916;28;20074;-75
2021/05/16 00:43:22;;;;;;;17.48;6.30;;;;;;;-145.50;100.00;65435.88;4987930;28;20087;-74
2021/05/16 00:46:09;;;;;;;21.13;6.20;;;;;;;-145.50;100.00;65435.88;4995803;28;20046;-74
2021/05/16 00:48:57;;;;;;;15.68;5.85;;;;;;;-145.50;100.00;65435.88;4988757;28;20478;-75
2021/05/16 00:51:44;;;;;;;20.57;7.47;;;;;;;-145.50;100.00;65435.88;4998418;28;20110;-74
2021/05/16 00:54:31;;;;;;;18.67;6.57;;;;;;;-145.50;100.00;65435.88;4996026;28;20049;-74
2021/05/16 00:57:19;;;;;;;19.30;6.95;;;;;;;-145.50;100.00;65435.88;4994866;28;20049;-74
2021/05/16 01:00:17;;;;;;;21.10;6.07;;;;;;;-145.50;100.00;65435.88;4991352;28;20062;-74
2021/05/16 01:03:04;;;;;;;19.00;6.15;;;;;;;-145.50;100.00;65435.88;5011848;28;20054;-75
2021/05/16 01:05:51;;;;;;;18.03;6.57;;;;;;;-145.50;100.00;65435.88;4991667;28;20105;-74
2021/05/16 01:08:38;;;;;;;16.92;6.50;;;;;;;-145.50;100.00;65435.88;4995750;28;20100;-75
2021/05/16 01:11:31;;;;;;;19.02;5.70;;;;;;;-145.50;100.00;65435.88;4992637;28;20085;-74
2021/05/16 01:14:31;;;;;;;20.20;5.70;;;;;;;-145.50;100.00;65435.88;4991433;28;20049;-74
2021/05/16 01:17:18;;;;;;;25.63;6.57;;;;;;;-145.50;100.00;65435.88;4988223;28;20085;-75
2021/05/16 01:20:07;;;;;;;19.73;6.53;;;;;;;-145.50;100.00;65435.88;5000942;28;20155;-74
2021/05/16 01:22:56;;;;;;;;;;;;;;;-145.50;100.00;65435.88;4990122;28;20524;-74
2021/05/16 01:25:45;;;;;;;18.85;6.45;;;;;;;-145.50;100.00;65435.88;4991673;28;19965;-76
2021/05/16 01:28:32;;;;;;;;;;;;;;;-145.50;100.00;65435.88;4986145;28;20049;-76
2021/05/16 01:31:19;;;;;;;21.77;7.60;;;;;;;-145.50;100.00;65435.88;4998165;28;20048;-76
2021/05/16 01:34:06;;;;;;;20.08;6.97;;;;;;;-145.50;100.00;65435.88;4990905;28;20081;-76
2021/05/16 01:36:54;;;;;;;27.15;7.72;;;;;;;-145.50;100.00;65435.88;4996524;28;20139;-76
2021/05/16 01:39:41;;;;;;;20.77;6.70;;;;;;;-145.50;100.00;65435.88;4986765;28;20077;-76
2021/05/16 01:42:29;;;;;;;23.00;7.23;;;;;;;-145.50;100.00;65435.88;4992891;28;20053;-76
2021/05/16 01:45:18;;;;;;;27.98;7.40;;;;;;;-145.50;100.00;65435.88;4989250;28;20078;-75
2021/05/16 01:48:06;;;;;;;24.73;7.57;;;;;;;-145.50;100.00;65435.88;4994744;28;20073;-76
2021/05/16 01:50:54;;;;;;;22.55;7.72;;;;;;;-145.50;100.00;65435.88;4991574;28;20556;-76
2021/05/16 01:53:41;;;;;;;22.27;7.32;;;;;;;-145.50;100.00;65435.88;4990394;28;20135;-76
2021/05/16 01:56:29;;;;;;;31.73;7.47;;;;;;;-145.50;100.00;65435.88;4976863;28;20089;-76
2021/05/16 01:59:17;;;;;;;27.08;7.63;;;;;;;-145.50;100.00;65435.88;4997662;28;20540;-76
2021/05/16 02:02:05;;;;;;;29.73;8.23;;;;;;;-145.50;100.00;65435.88;4986513;28;20714;-76
2021/05/16 02:04:53;;;;;;;22.83;7.80;;;;;;;-145.50;100.00;65435.88;4997274;28;20053;-74
2021/05/16 02:07:40;;;;;;;27.95;8.05;;;;;;;-145.50;100.00;65435.88;4987693;28;20393;-73
2021/05/16 02:10:28;;;;;;;26.07;6.63;;;;;;;-145.50;100.00;65435.88;4995462;28;20085;-73
2021/05/16 02:13:15;;;;;;;28.90;6.65;;;;;;;-145.50;100.00;65435.88;4996276;28;20053;-74
2021/05/16 02:16:03;;;;;;;30.92;7.10;;;;;;;-145.50;100.00;65435.88;4988522;28;20101;-74
2021/05/16 02:18:50;;;;;;;24.02;7.32;;;;;;;-145.50;100.00;65435.88;4999410;28;20049;-74
2021/05/16 02:21:37;;;;;;;27.63;6.55;;;;;;;-145.50;100.00;65435.88;4980652;28;20506;-74
2021/05/16 02:24:24;;;;;;;22.15;6.63;;;;;;;-145.50;100.00;65435.88;4995504;28;20112;-74
2021/05/16 02:27:12;;;;;;;30.05;7.57;;;;;;;-145.50;100.00;65435.88;4985690;28;20085;-74
2021/05/16 02:29:59;;;;;;;25.90;7.88;;;;;;;-145.50;100.00;65435.88;4997540;28;20058;-74
2021/05/16 02:32:47;;;;;;;23.25;6.88;;;;;;;-145.50;100.00;65435.88;4988801;28;20489;-74
2021/05/16 02:35:34;;;;;;;31.75;6.68;;;;;;;-145.50;100.00;65435.88;4993072;28;20089;-75
2021/05/16 02:38:21;;;;;;;27.23;6.57;;;;;;;-145.50;100.00;65435.88;4983674;28;20085;-75
2021/05/16 02:41:08;;;;;;;28.55;7.00;;;;;;;-145.50;100.00;65435.88;4992101;28;20088;-75
2021/05/16 02:43:44;;;;;;;25.60;6.57;;;;;;;-145.50;100.00;65435.88;4989528;28;20081;-75
2021/05/16 02:46:31;;;;;;;29.85;8.02;;;;;;;-145.50;100.00;65435.88;4996132;28;20085;-75
2021/05/16 02:49:14;;;;;;;30.10;6.88;;;;;;;-145.50;100.00;65435.88;4987406;28;20077;-74
2021/05/16 02:51:54;;;;;;;25.50;6.85;;;;;;;-145.50;100.00;65435.88;4987109;28;20097;-74
2021/05/16 02:54:37;;;;;;;28.58;7.18;;;;;;;-145.50;100.00;65435.88;4992915;28;20550;-75
2021/05/16 02:57:24;;;;;;;32.60;7.65;;;;;;;-145.50;100.00;65435.88;4994073;28;20158;-75
2021/05/16 03:00:11;;;;;;;23.90;6.65;;;;;;;-145.50;100.00;65435.88;4997327;28;20058;-75
2021/05/16 03:02:51;;;;;;;23.23;7.13;;;;;;;-145.50;100.00;65435.88;4995540;28;20826;-75
2021/05/16 03:05:34;;;;;;;25.40;7.05;;;;;;;-145.50;100.00;65435.88;4991286;28;20061;-75
2021/05/16 03:08:17;;;;;;;35.35;7.03;;;;;;;-145.50;100.00;65435.88;5004003;28;20616;-75
2021/05/16 03:10:56;;;;;;;38.60;7.25;;;;;;;-145.50;100.00;65435.88;5001210;28;20140;-75
2021/05/16 03:13:39;;;;;;;24.23;6.22;;;;;;;-145.50;100.00;65435.88;5003959;28;20492;-75
2021/05/16 03:16:22;;;;;;;33.92;7.30;;;;;;;-145.50;100.00;65435.88;4991697;28;20604;-75
2021/05/16 03:19:07;;;;;;;32.55;7.60;;;;;;;-145.50;100.00;65435.88;4987558;28;20317;-75
2021/05/16 03:21:47;;;;;;;23.42;6.43;;;;;;;-145.50;100.00;65435.88;4998436;28;20149;-74
2021/05/16 03:24:26;;;;;;;28.40;7.15;;;;;;;-145.50;100.00;65435.88;4994103;28;20516;-75
2021/05/16 03:27:04;;;;;;;22.92;6.40;;;;;;;-145.50;100.00;65435.88;5001626;28;20167;-74
2021/05/16 03:29:42;;;;;;;25.98;7.00;;;;;;;-145.50;100.00;65435.88;4997095;28;20148;-74
2021/05/16 03:32:28;;;;;;;24.33;6.77;;;;;;;-145.50;100.00;65435.88;4994012;28;20054;-75
2021/05/16 03:35:05;;;;;;;28.00;6.38;;;;;;;-145.50;100.00;65435.88;4992923;28;20058;-74
2021/05/16 03:37:43;;;;;;;27.05;7.10;;;;;;;-145.50;100.00;65435.88;5003359;28;20046;-74
2021/05/16 03:40:27;;;;;;;;;;;;;;;-145.50;100.00;65435.88;4997724;28;20557;-74
2021/05/16 03:43:03;;;;;;;32.30;7.75;;;;;;;-145.50;100.00;65435.88;5002341;28;19925;-74
2021/05/16 03:45:50;;;;;;;22.30;6.72;;;;;;;-145.50;100.00;65435.88;4986317;28;20077;-74
2021/05/16 03:48:36;;;;;;;30.30;8.43;;;;;;;-145.50;100.00;65435.88;5002535;28;20053;-74
2021/05/16 03:51:25;;;;;;;33.80;8.43;;;;;;;-145.50;100.00;65435.88;4996608;28;20081;-76
2021/05/16 03:54:15;;;;;;;28.95;8.30;;;;;;;-145.50;100.00;65435.88;4998984;28;20465;-75
2021/05/16 03:56:56;;;;;;;32.60;8.98;;;;;;;-145.50;100.00;65435.88;4989862;28;20173;-75
2021/05/16 03:59:44;;;;;;;32.05;9.07;;;;;;;-145.50;100.00;65435.88;5000061;28;20052;-75
2021/05/16 04:02:31;;;;;;;27.42;8.32;;;;;;;-145.50;100.00;65435.88;4999657;28;20120;-75
2021/05/16 04:05:18;;;;;;;35.08;8.60;;;;;;;-145.50;100.00;65435.88;4993786;28;20050;-75
2021/05/16 04:08:05;;;;;;;39.63;8.80;;;;;;;-145.50;100.00;65435.88;5000023;28;20050;-75
2021/05/16 04:10:53;;;;;;;25.23;8.60;;;;;;;-145.50;100.00;65435.88;4996048;28;20049;-75
2021/05/16 04:13:40;;;;;;;37.70;10.27;;;;;;;-145.50;100.00;65435.88;4989934;28;20565;-75
2021/05/16 04:16:27;;;;;;;36.88;10.45;;;;;;;-145.50;100.00;65435.88;4988993;28;20469;-75
2021/05/16 04:19:14;;;;;;;36.05;9.07;;;;;;;-145.50;100.00;65435.88;5003238;28;20081;-75
2021/05/16 04:22:01;;;;;;;38.05;10.90;;;;;;;-145.50;100.00;65435.88;4983767;28;20082;-74
2021/05/16 04:24:49;;;;;;;41.20;11.47;;;;;;;-145.50;100.00;65435.88;4992391;28;20425;-74
2021/05/16 04:27:36;;;;;;;41.03;10.75;;;;;;;-145.50;100.00;65435.88;4987550;28;20398;-74
2021/05/16 04:30:24;;;;;;;43.72;10.75;;;;;;;-145.50;100.00;65435.88;5000616;28;20054;-74
2021/05/16 04:33:12;;;;;;;33.15;10.30;;;;;;;-145.50;100.00;65435.88;4988072;28;20050;-74
2021/05/16 04:35:59;;;;;;;33.85;9.93;;;;;;;-145.50;100.00;65435.88;4993551;28;20057;-74
2021/05/16 04:38:47;;;;;;;36.45;9.48;;;;;;;-145.50;100.00;65435.88;4984122;28;20086;-75
2021/05/16 04:41:35;;;;;;;36.40;10.23;;;;;;;-145.50;100.00;65435.88;4996261;28;20634;-75
2021/05/16 04:44:23;;;;;;;33.33;10.70;;;;;;;-145.50;100.00;65435.88;4988729;28;20084;-75
2021/05/16 04:47:13;;;;;;;43.00;11.57;;;;;;;-145.50;100.00;65435.88;4996189;28;20108;-75
2021/05/16 04:49:52;;;;;;;41.40;9.88;;;;;;;-145.50;100.00;65435.88;4986831;28;20116;-74
2021/05/16 04:52:39;;;;;;;;;;;;;;;-145.50;100.00;65435.88;4995135;28;20343;-74
2021/05/16 04:55:21;;;;;;;37.63;10.00;;;;;;;-145.50;100.00;65435.88;4988966;28;20354;-75
2021/05/16 04:58:08;;;;;;;36.92;10.02;;;;;;;-145.50;100.00;65435.88;5000625;28;20155;-75
2021/05/16 05:00:55;;;;;;;33.17;10.90;;;;;;;-145.50;100.00;65435.88;4988008;28;20569;-75
2021/05/16 05:03:43;;;;;;;36.72;10.68;;;;;;;-145.50;100.00;65435.88;4992958;28;20073;-74
2021/05/16 05:06:30;;;;;;;;;;;;;;;-145.50;100.00;65435.88;4983730;28;20144;-74
2021/05/16 05:09:18;;;;;;;33.33;10.68;;;;;;;-145.50;100.00;65435.88;5002660;28;20338;-74
2021/05/16 05:12:06;;;;;;;31.63;9.80;;;;;;;-145.50;100.00;65435.88;4987035;28;20076;-74
2021/05/16 05:14:52;;;;;;;42.70;10.73;;;;;;;-145.50;100.00;65435.88;4993536;28;20058;-74
2021/05/16 05:17:40;;;;;;;35.28;10.13;;;;;;;-145.50;100.00;65435.88;4993117;28;20049;-74
2021/05/16 05:20:28;;;;;;;35.42;11.55;;;;;;;-145.50;100.00;65435.88;4989216;28;20046;-75
2021/05/16 05:23:15;;;;;;;34.67;10.82;;;;;;;-145.50;100.00;65435.88;4999065;28;20061;-75
2021/05/16 05:26:02;;;;;;;36.15;11.02;;;;;;;-145.50;100.00;65435.88;4995713;28;20144;-75
2021/05/16 05:28:50;;;;;;;34.10;11.33;;;;;;;-145.50;100.00;65435.88;5014504;28;20468;-75
2021/05/16 05:31:37;;;;;;;23.08;10.15;;;;;;;-145.50;100.00;65435.88;4981160;28;20453;-75
2021/05/16 05:34:25;;;;;;;31.67;10.90;;;;;;;-145.50;100.00;65435.88;4991352;28;20050;-75
2021/05/16 05:37:13;;;;;;;42.97;12.18;;;;;;;-145.50;100.00;65435.88;4989703;28;20131;-75
2021/05/16 05:40:00;;;;;;;37.90;11.00;;;;;;;-145.50;100.00;65435.88;4992310;28;20159;-75
2021/05/16 05:42:47;;;;;;;35.25;11.95;;;;;;;-145.50;100.00;65435.88;4991199;28;20094;-75
2021/05/16 05:45:34;;;;;;;30.77;12.48;;;;;;;-145.50;100.00;65435.88;4993463;28;20473;-75
2021/05/16 05:48:21;;;;;;;36.42;13.00;;;;;;;-145.50;100.00;65435.88;4982490;28;20058;-75
2021/05/16 05:51:08;;;;;;;34.78;12.50;;;;;;;-145.50;100.00;65435.88;4996614;28;20058;-75
2021/05/16 05:53:55;;;;;;;28.90;11.10;;;;;;;-145.50;100.00;65435.88;4993183;28;20140;-75
2021/05/16 05:56:42;;;;;;;39.60;12.15;;;;;;;-145.50;100.00;65435.88;4996264;28;20070;-75
2021/05/16 05:59:31;;;;;;;33.22;11.93;;;;;;;-145.50;100.00;65435.88;4987954;28;20137;-75
2021/05/16 06:02:18;;;;;;;38.25;13.15;;;;;;;-145.50;100.00;65435.88;4994514;28;20076;-75
2021/05/16 06:05:06;;;;;;;39.80;13.63;;;;;;;-145.50;100.00;65435.88;4988019;28;20085;-75
2021/05/16 06:07:53;;;;;;;42.67;14.27;;;;;;;-145.50;100.00;65435.88;4998952;28;20054;-75
2021/05/16 06:10:41;;;;;;;37.45;13.82;;;;;;;-145.50;100.00;65435.88;4985288;28;20520;-75
2021/05/16 06:13:28;;;;;;;43.90;14.20;;;;;;;-145.50;100.00;65435.88;4998616;28;20570;-75
2021/05/16 06:16:15;;;;;;;37.55;13.98;;;;;;;-145.50;100.00;65435.88;4986039;28;20573;-75
2021/05/16 06:19:02;;;;;;;46.22;13.98;;;;;;;-145.50;100.00;65435.88;4994728;28;20057;-75
2021/05/16 06:21:49;;;;;;;39.75;14.65;;;;;;;-145.50;100.00;65435.88;4989015;28;20557;-75
2021/05/16 06:24:36;;;;;;;43.90;14.50;;;;;;;-145.50;100.00;65435.88;4992352;28;20038;-75
2021/05/16 06:27:23;;;;;;;44.90;14.60;;;;;;;-145.50;100.00;65435.88;4992596;28;20082;-75
2021/05/16 06:30:11;;;;;;;36.88;12.68;;;;;;;-145.50;100.00;65435.88;4986898;28;20110;-75
2021/05/16 06:32:58;;;;;;;41.22;13.38;;;;;;;-145.50;100.00;65435.88;4985172;28;20510;-74
2021/05/16 06:35:44;;;;;;;42.28;13.35;;;;;;;-145.50;100.00;65435.88;4996126;28;20616;-75
2021/05/16 06:38:31;;;;;;;36.65;12.38;;;;;;;-145.50;100.00;65435.88;5000419;28;20137;-75
2021/05/16 06:41:19;;;;;;;42.28;13.40;;;;;;;-145.50;100.00;65435.88;4994965;28;20081;-75
2021/05/16 06:44:06;;;;;;;38.10;13.65;;;;;;;-145.50;100.00;65435.88;4991682;28;20123;-75
2021/05/16 06:46:36;;;;;;;38.50;11.27;;;;;;;-145.50;100.00;65435.88;4991600;28;20119;-75
2021/05/16 06:49:22;;;;;;;33.75;11.02;;;;;;;-145.50;100.00;65435.88;4987070;28;20470;-75
2021/05/16 06:51:59;;;;;;;41.15;11.70;;;;;;;-145.50;100.00;65435.88;4989770;28;20089;-75
2021/05/16 06:54:48;;;;;;;31.00;11.20;;;;;;;-145.50;100.00;65435.88;4981031;28;20124;-75
2021/05/16 06:57:36;;;;;;;38.47;12.05;;;;;;;-145.50;100.00;65435.88;4981425;28;20157;-75
2021/05/16 07:00:20;;;;;;;33.97;11.63;;;;;;;-145.50;100.00;65435.88;4996498;28;20362;-75
2021/05/16 07:03:08;;;;;;;36.03;12.75;;;;;;;-145.50;100.00;65435.88;4987187;28;20467;-75
2021/05/16 07:05:55;;;;;;;31.45;11.18;;;;;;;-145.50;100.00;65435.88;4994816;28;20069;-75
2021/05/16 07:08:42;;;;;;;30.88;10.82;;;;;;;-145.50;100.00;65435.88;4978816;28;20060;-75
2021/05/16 07:11:29;;;;;;;39.15;11.68;;;;;;;-145.50;100.00;65435.88;4993084;28;20445;-75
2021/05/16 07:14:16;;;;;;;36.00;10.40;;;;;;;-145.50;100.00;65435.88;4989586;28;20061;-75
2021/05/16 07:16:59;;;;;;;27.60;9.45;;;;;;;-145.50;100.00;65435.88;4997347;28;20054;-75
2021/05/16 07:19:47;;;;;;;28.58;9.45;;;;;;;-145.50;100.00;65435.88;4986493;28;20124;-75
2021/05/16 07:22:24;;;;;;;31.63;9.85;;;;;;;-145.50;100.00;65435.88;4988292;28;20057;-75
2021/05/16 07:25:10;;;;;;;26.75;9.60;;;;;;;-145.50;100.00;65435.88;4981973;28;20156;-75
2021/05/16 07:27:51;;;;;;;30.15;10.00;;;;;;;-145.50;100.00;65435.88;4999507;28;20461;-75
2021/05/16 07:30:38;;;;;;;30.52;9.95;;;;;;;-145.50;100.00;65435.88;4987593;28;20093;-74
2021/05/16 07:33:16;;;;;;;35.85;9.82;;;;;;;-145.50;100.00;65435.88;4998776;28;20107;-75
2021/05/16 07:35:43;;;;;;;;;;;;;;;-145.50;100.00;65435.88;4991808;28;20046;-74
2021/05/16 07:38:10;;;;;;;28.17;9.35;;;;;;;-145.50;100.00;65435.88;4985171;28;21164;-75
2021/05/16 07:40:39;;;;;;;30.38;9.82;;;;;;;-145.50;100.00;65435.88;4995755;28;20120;-75
2021/05/16 07:43:07;;;;;;;26.77;10.18;;;;;;;-145.50;100.00;65435.88;4991199;28;20478;-75
2021/05/16 07:45:34;;;;;;;26.42;8.95;;;;;;;-145.50;100.00;65435.88;4994729;28;20054;-75
2021/05/16 07:48:01;;;;;;;29.45;9.25;;;;;;;-145.50;100.00;65435.88;4989741;28;20089;-75
2021/05/16 07:50:28;;;;;;;28.60;9.02;;;;;;;-145.50;100.00;65435.88;4990828;28;20731;-75
2021/05/16 07:52:54;;;;;;;29.50;9.57;;;;;;;-145.50;100.00;65435.88;5002722;28;20052;-76
2021/05/16 07:55:21;;;;;;;34.78;10.70;;;;;;;-145.50;100.00;65435.88;4992686;28;20099;-75
2021/05/16 07:57:48;;;;;;;26.92;11.25;;;;;;;-145.50;100.00;65435.88;4998264;28;20058;-75
2021/05/16 08:00:15;;;;;;;31.00;11.60;;;;;;;-145.50;100.00;65435.88;4991121;28;20131;-75
2021/05/16 08:02:43;;;;;;;36.17;11.38;;;;;;;-145.50;100.00;65435.88;4994388;28;20520;-76
2021/05/16 08:05:12;;;;;;;30.98;12.13;;;;;;;-145.50;100.00;65435.88;4986470;28;20107;-76
2021/05/16 08:07:38;;;;;;;;;;;;;;;-145.50;100.00;65435.88;5002514;28;20081;-76
2021/05/16 08:10:06;;;;;;;32.15;13.38;;;;;;;-145.50;100.00;65435.88;4997970;28;20357;-75
2021/05/16 08:12:34;;;;;;;31.42;12.82;;;;;;;-145.50;100.00;65435.88;4989213;28;20085;-76
2021/05/16 08:15:00;;;;;;;32.75;12.85;;;;;;;-145.50;100.00;65435.88;4996315;28;20049;-76
2021/05/16 08:17:27;;;;;;;31.50;13.27;;;;;;;-145.50;100.00;65435.88;4987590;28;20132;-76
2021/05/16 08:19:54;;;;;;;30.27;13.52;;;;;;;-145.50;100.00;65435.88;4988134;28;20158;-76
2021/05/16 08:22:20;;;;;;;37.60;14.20;;;;;;;-145.50;100.00;65435.88;4987161;28;20061;-75
2021/05/16 08:24:47;;;;;;;36.03;12.43;;;;;;;-145.50;100.00;65435.88;4995897;28;20458;-75
2021/05/16 08:27:14;;;;;;;29.67;13.77;;;;;;;-145.50;100.00;65435.88;4998759;28;20222;-73
2021/05/16 08:29:40;;;;;;;28.65;13.23;;;;;;;-145.50;100.00;65435.88;4990133;28;20120;-73
2021/05/16 08:32:07;;;;;;;33.55;13.90;;;;;;;-145.50;100.00;65435.88;4985540;28;20345;-73
2021/05/16 08:34:35;;;;;;;34.92;14.00;;;;;;;-145.50;100.00;65435.88;4989806;28;20148;-73
2021/05/16 08:37:04;;;;;;;36.28;14.70;;;;;;;-145.50;100.00;65435.88;5000619;28;20496;-75
2021/05/16 08:39:31;;;;;;;32.35;14.23;;;;;;;-145.50;100.00;65435.88;4995950;28;20370;-75
2021/05/16 08:41:57;;;;;;;30.98;14.68;;;;;;;-145.50;100.00;65435.88;4989476;28;20054;-75
2021/05/16 08:44:26;;;;;;;30.55;14.38;;;;;;;-145.50;100.00;65435.88;4993211;28;20418;-74
2021/05/16 08:46:53;;;;;;;33.60;14.85;;;;;;;-145.50;100.00;65435.88;4987770;28;20081;-75
2021/05/16 08:49:19;;;;;;;35.92;15.20;;;;;;;-145.50;100.00;65435.88;4992729;28;20077;-75
2021/05/16 08:51:50;;;;;;;32.45;15.43;;;;;;;-145.50;100.00;65435.88;4988472;28;20054;-75
2021/05/16 08:54:18;;;;;;;34.35;15.20;;;;;;;-145.50;100.00;65435.88;4991655;28;20505;-75
2021/05/16 08:56:50;;;;;;;31.75;14.55;;;;;;;-145.50;100.00;65435.88;4995648;28;20061;-75
2021/05/16 08:59:17;;;;;;;32.42;16.23;;;;;;;-145.50;100.00;65435.88;4983002;28;20143;-75
2021/05/16 09:01:48;;;;;;;44.38;17.45;;;;;;;-145.50;100.00;65435.88;4996747;28;20054;-75
2021/05/16 09:04:37;;;;;;;41.20;17.33;;;;;;;-145.50;100.00;65435.88;4981505;28;20081;-74
2021/05/16 09:07:04;;;;;;;38.03;15.13;;;;;;;-145.50;100.00;65435.88;4996109;28;20163;-75
2021/05/16 09:09:41;;;;;;;31.67;14.73;;;;;;;-145.50;100.00;65435.88;4988736;28;20057;-75
2021/05/16 09:12:14;;;;;;;38.28;14.98;;;;;;;-145.50;100.00;65435.88;4995444;28;20280;-75
2021/05/16 09:14:43;;;;;;;32.13;13.88;;;;;;;-145.50;100.00;65435.88;4984147;28;20638;-75
2021/05/16 09:17:29;;;;;;;30.45;13.40;;;;;;;-145.50;100.00;65435.88;4993235;28;20529;-74
2021/05/16 09:20:02;;;;;;;35.45;13.38;;;;;;;-145.50;100.00;65435.88;4997826;28;20132;-74
2021/05/16 09:22:46;;;;;;;27.70;11.88;;;;;;;-145.50;100.00;65435.88;4986854;28;20061;-74
2021/05/16 09:25:25;;;;;;;25.73;11.35;;;;;;;-145.50;100.00;65435.88;4997420;28;20161;-74
2021/05/16 09:28:04;;;;;;;34.45;12.85;;;;;;;-145.50;100.00;65435.88;4983748;28;20128;-74
2021/05/16 09:30:32;;;;;;;25.50;12.13;;;;;;;-145.50;100.00;65435.88;4995457;28;20549;-74
2021/05/16 09:33:08;;;;;;;26.70;10.63;;;;;;;-145.50;100.00;65435.88;4984115;28;20057;-74
2021/05/16 09:35:37;;;;;;;26.63;10.07;;;;;;;-145.50;100.00;65435.88;5001102;28;20085;-73
2021/05/16 09:38:21;;;;;;;23.88;10.13;;;;;;;-145.50;100.00;65435.88;4990774;28;21197;-73
2021/05/16 09:40:56;;;;;;;29.52;10.95;;;;;;;-145.50;100.00;65435.88;4996921;28;20495;-73
2021/05/16 09:43:25;;;;;;;23.45;10.35;;;;;;;-145.50;100.00;65435.88;4991462;28;20056;-75
2021/05/16 09:46:02;;;;;;;26.25;11.23;;;;;;;-145.50;100.00;65435.88;4988427;28;20540;-74
2021/05/16 09:48:29;;;;;;;23.35;10.73;;;;;;;-145.50;100.00;65435.88;4990279;28;20058;-75
2021/05/16 09:51:03;;;;;;;34.88;11.02;;;;;;;-145.50;100.00;65435.88;4998735;28;20050;-74
2021/05/16 09:53:30;;;;;;;27.23;9.00;;;;;;;-145.50;100.00;65435.88;5012027;28;20250;-73
2021/05/16 09:56:14;;;;;;;22.40;7.47;;;;;;;-145.50;100.00;65435.88;4992877;28;20498;-74
2021/05/16 09:58:41;;;;;;;28.90;8.98;;;;;;;-145.50;100.00;65435.88;4989717;28;20058;-74
2021/05/16 10:01:08;;;;;;;23.38;6.85;;;;;;;-145.50;100.00;65435.88;4988879;28;20131;-72
2021/05/16 10:03:36;;;;;;;;;;;;;;;-145.50;100.00;65435.88;4995708;28;20383;-72
2021/05/16 10:06:03;;;;;;;18.52;6.18;;;;;;;-145.50;100.00;65435.88;5003669;28;20549;-74
2021/05/16 10:08:30;;;;;;;15.48;5.70;;;;;;;-145.50;100.00;65435.88;4982166;28;20050;-72
2021/05/16 10:10:57;;;;;;;17.63;5.68;;;;;;;-145.50;100.00;65435.88;4994821;28;20053;-75
2021/05/16 10:13:30;;;;;;;17.15;5.63;;;;;;;-145.50;100.00;65435.88;4986439;28;20112;-75
2021/05/16 10:16:00;;;;;;;18.20;5.72;;;;;;;-145.50;100.00;65435.88;4998701;28;20060;-74
2021/05/16 10:18:28;;;;;;;26.00;6.82;;;;;;;-145.50;100.00;65435.88;4988199;28;20449;-74
2021/05/16 10:20:55;;;;;;;23.40;5.95;;;;;;;-145.50;100.00;65435.88;5002003;28;20062;-75
2021/05/16 10:23:39;;;;;;;23.38;6.50;;;;;;;-145.50;100.00;65435.88;4987100;28;20112;-75
2021/05/16 10:26:25;;;;;;;20.77;5.82;;;;;;;-145.50;100.00;65435.88;4986503;28;20470;-74
2021/05/16 10:29:03;;;;;;;17.35;5.05;;;;;;;-145.50;100.00;65435.88;4992359;28;20414;-75
2021/05/16 10:31:49;;;;;;;13.67;5.43;;;;;;;-145.50;100.00;65435.88;4988920;28;20053;-75
2021/05/16 10:34:25;;;;;;;18.67;5.45;;;;;;;-145.50;100.00;65435.88;4996956;28;20703;-75
2021/05/16 10:36:55;;;;;;;17.58;5.03;;;;;;;-145.50;100.00;65435.88;4985598;28;20108;-75
2021/05/16 10:39:42;;;;;;;21.20;4.50;;;;;;;-145.50;100.00;65435.88;4993255;28;20077;-74
2021/05/16 10:42:23;;;;;;;20.33;5.47;;;;;;;-145.50;100.00;65435.88;4987828;28;20083;-74
2021/05/16 10:44:57;;;;;;;21.58;4.53;;;;;;;-145.50;100.00;65435.88;4998709;28;20073;-74
2021/05/16 10:47:42;;;;;;;15.73;4.47;;;;;;;-145.50;100.00;65435.88;4980434;28;20094;-75
2021/05/16 10:50:30;;;;;;;25.50;5.25;;;;;;;-145.50;100.00;65435.88;4989562;28;20085;-75
2021/05/16 10:53:01;;;;;;;15.67;4.27;;;;;;;-145.50;100.00;65435.88;4972826;28;20623;-76
2021/05/16 10:55:32;;;;;;;17.08;4.22;;;;;;;-145.50;100.00;65435.88;4991667;28;20054;-74
2021/05/16 10:58:01;;;;;;;20.33;5.03;;;;;;;-145.50;100.00;65435.88;4994024;28;20045;-75
2021/05/16 11:00:34;;;;;;;17.95;3.85;;;;;;;-145.50;100.00;65435.88;4986697;28;20521;-74
2021/05/16 11:03:12;;;;;;;20.35;3.88;;;;;;;-145.50;100.00;65435.88;4989673;28;20151;-74
2021/05/16 11:05:48;;;;;;;13.57;4.20;;;;;;;-145.50;100.00;65435.88;4978685;28;20437;-74
2021/05/16 11:08:18;;;;;;;12.15;3.75;;;;;;;-145.50;100.00;65435.88;4991572;28;20065;-75
2021/05/16 11:10:51;;;;;;;9.93;3.35;;;;;;;-145.50;100.00;65435.88;4990541;28;20494;-73
2021/05/16 11:13:20;;;;;;;16.27;3.88;;;;;;;-145.50;100.00;65435.88;4990306;28;20474;-74
2021/05/16 11:15:52;;;;;;;17.00;4.00;;;;;;;-145.50;100.00;65435.88;4994632;28;20132;-74
2021/05/16 11:18:20;;;;;;;11.43;4.50;;;;;;;-145.50;100.00;65435.88;4979873;28;20061;-74
2021/05/16 11:20:57;;;;;;;20.63;4.93;;;;;;;-145.50;100.00;65435.88;4994881;28;20133;-74
2021/05/16 11:23:29;;;;;;;24.45;5.68;;;;;;;-145.50;100.00;65435.88;4989746;28;20062;-74
2021/05/16 11:25:58;;;;;;;27.13;7.35;;;;;;;-145.50;100.00;65435.88;5003364;28;20279;-75
2021/05/16 11:28:27;;;;;;;;;;;;;;;-145.50;100.00;65435.88;4990118;28;20057;-75
2021/05/16 11:30:56;;;;;;;17.48;5.75;;;;;;;-145.50;100.00;65435.88;4995562;28;20197;-75
2021/05/16 11:33:31;;;;;;;17.83;5.85;;;;;;;-145.50;100.00;65435.88;4992458;28;20132;-74
2021/05/16 11:36:05;;;;;;;14.43;6.70;;;;;;;-145.50;100.00;65435.88;5013719;28;20144;-74
2021/05/16 11:38:33;;;;;;;17.85;6.43;;;;;;;-145.50;100.00;65435.88;5002794;28;20573;-75
2021/05/16 11:41:00;;;;;;;17.88;6.07;;;;;;;-145.50;100.00;65435.88;4992073;28;20051;-73
2021/05/16 11:43:31;;;;;;;17.13;6.30;;;;;;;-145.50;100.00;65435.88;4996923;28;20123;-75
2021/05/16 11:46:00;;;;;;;23.02;5.97;;;;;;;-145.50;100.00;65435.88;4994143;28;20144;-74
2021/05/16 11:48:33;;;;;;;22.05;6.82;;;;;;;-145.50;100.00;65435.88;4999789;28;20104;-74
2021/05/16 11:51:14;;;;;;;17.80;6.95;;;;;;;-145.50;100.00;65435.88;4999427;28;20058;-74
2021/05/16 11:53:43;;;;;;;14.35;6.47;;;;;;;-145.50;100.00;65435.88;4997726;28;20963;-75
2021/05/16 11:56:11;;;;;;;;;;;;;;;-145.50;100.00;65435.88;4997578;28;20079;-76
2021/05/16 11:58:39;;;;;;;10.57;4.13;;;;;;;-145.50;100.00;65435.88;4996370;28;19983;-75
2021/05/16 12:01:11;;;;;;;8.50;2.33;;;;;;;-145.50;100.00;65435.88;4998591;28;20108;-74